Time;durP1;ratioP1;P1;durP2;ratioP2;P2;SDS_P1;SDS_P2;PMS_P1;PMS_P2;Temp;Humidity;BMP_temperature;BMP_pressure;BME280_temperature;BME280_humidity;BME280_pressure;Samples;Min_cycle;Max_cycle;Signal;HPM_P1;HPM_P2
2021/10/04 00:00:24;;;;;;;1889.87;624.00;;;13.00;99.90;;;;;;5114712;28;20446;-77
2021/10/04 00:02:52;;;;;;;920.77;237.73;;;13.00;99.90;;;;;;5114471;27;20468;-77
2021/10/04 00:05:21;;;;;;;356.20;83.50;;;12.90;99.90;;;;;;5113150;28;20969;-75
2021/10/04 00:07:49;;;;;;;385.67;84.10;;;12.90;99.90;;;;;;5113073;28;20459;-76
2021/10/04 00:10:19;;;;;;;394.77;90.37;;;12.90;99.90;;;;;;5113059;28;20526;-76
2021/10/04 00:12:49;;;;;;;287.03;56.17;;;12.80;99.90;;;;;;5114802;28;20426;-77
2021/10/04 00:15:19;;;;;;;343.17;69.37;;;12.80;99.90;;;;;;5113066;28;20447;-76
2021/10/04 00:17:49;;;;;;;326.47;79.27;;;12.80;99.90;;;;;;5114170;28;20456;-77
2021/10/04 00:20:18;;;;;;;342.50;75.53;;;12.70;99.90;;;;;;5113001;28;20445;-76
2021/10/04 00:22:46;;;;;;;297.37;83.83;;;12.70;99.90;;;;;;5112186;28;20467;-76
2021/10/04 00:25:15;;;;;;;372.20;71.47;;;12.70;99.90;;;;;;5114252;28;21039;-75
2021/10/04 00:27:43;;;;;;;343.40;76.10;;;12.60;99.90;;;;;;5114047;28;20459;-75
2021/10/04 00:30:13;;;;;;;7.40;5.75;;;12.60;99.90;;;;;;5111787;28;20438;-77
2021/10/04 00:32:43;;;;;;;675.30;342.60;;;12.70;99.90;;;;;;5113914;28;20523;-77
2021/10/04 00:35:13;;;;;;;8.93;7.20;;;12.70;99.90;;;;;;5111931;28;20537;-76
2021/10/04 00:37:42;;;;;;;887.13;455.67;;;12.70;99.90;;;;;;5112492;28;20243;-77
2021/10/04 00:40:17;;;;;;;427.20;128.83;;;12.70;99.90;;;;;;5114665;28;20424;-77
2021/10/04 00:42:47;;;;;;;313.93;89.97;;;12.60;99.90;;;;;;5113739;28;20900;-75
2021/10/04 00:45:16;;;;;;;343.60;67.83;;;12.60;99.90;;;;;;5112585;28;20455;-76
2021/10/04 00:47:45;;;;;;;335.23;62.50;;;12.60;99.90;;;;;;5112642;28;21075;-77
2021/10/04 00:50:15;;;;;;;218.70;55.37;;;12.50;99.90;;;;;;5112606;28;20466;-77
2021/10/04 00:52:44;;;;;;;289.67;74.23;;;12.50;99.90;;;;;;5112780;28;20867;-76
2021/10/04 00:55:13;;;;;;;292.87;53.37;;;12.50;99.90;;;;;;5114278;28;20428;-75
2021/10/04 00:57:41;;;;;;;253.00;58.13;;;12.50;99.90;;;;;;5112449;28;20462;-77
2021/10/04 01:00:12;;;;;;;311.00;76.83;;;12.50;99.90;;;;;;5112534;28;20457;-77
2021/10/04 01:02:42;;;;;;;257.70;65.00;;;12.50;99.90;;;;;;5114412;28;20449;-76
2021/10/04 01:05:11;;;;;;;273.57;72.00;;;12.40;99.90;;;;;;5113685;28;20463;-76
2021/10/04 01:07:39;;;;;;;384.63;69.37;;;12.40;99.90;;;;;;5112233;28;20566;-77
2021/10/04 01:10:10;;;;;;;8.33;6.10;;;12.40;99.90;;;;;;5113069;28;20435;-77
2021/10/04 01:12:39;;;;;;;850.10;329.97;;;12.50;99.90;;;;;;5114186;28;20455;-76
2021/10/04 01:15:09;;;;;;;53.67;32.33;;;12.50;99.90;;;;;;5112049;28;20460;-76
2021/10/04 01:17:37;;;;;;;1013.17;435.20;;;12.50;99.90;;;;;;5112223;28;20209;-76
2021/10/04 01:20:11;;;;;;;362.47;94.90;;;12.50;99.90;;;;;;5113504;28;20431;-75
2021/10/04 01:22:39;;;;;;;300.17;69.63;;;12.40;99.90;;;;;;5113554;28;20916;-75
2021/10/04 01:25:09;;;;;;;315.17;85.23;;;12.40;99.90;;;;;;5112202;28;20547;-76
2021/10/04 01:27:37;;;;;;;246.03;56.33;;;12.40;99.90;;;;;;5113412;28;20979;-77
2021/10/04 01:30:06;;;;;;;159.80;42.10;;;12.40;99.90;;;;;;5112175;28;20440;-77
2021/10/04 01:32:34;;;;;;;227.10;55.57;;;12.40;99.90;;;;;;5112781;28;20443;-77
2021/10/04 01:35:03;;;;;;;218.30;49.83;;;12.40;99.90;;;;;;5116157;28;20443;-77
2021/10/04 01:37:33;;;;;;;187.97;36.80;;;12.40;99.90;;;;;;5115987;28;20485;-75
2021/10/04 01:40:01;;;;;;;358.00;71.73;;;12.30;99.90;;;;;;5116472;28;20525;-76
2021/10/04 01:42:29;;;;;;;293.93;71.07;;;12.30;99.90;;;;;;5115992;28;20439;-76
2021/10/04 01:44:57;;;;;;;8.52;6.60;;;12.30;99.90;;;;;;5116296;28;20992;-76
2021/10/04 01:47:25;;;;;;;1228.40;471.40;;;12.40;99.90;;;;;;5115880;28;20216;-76
2021/10/04 01:49:53;;;;;;;204.80;61.80;;;12.40;99.90;;;;;;5115898;28;20451;-77
2021/10/04 01:52:22;;;;;;;326.27;111.20;;;12.40;99.90;;;;;;5115854;28;20193;-77
2021/10/04 01:54:55;;;;;;;213.10;52.33;;;12.30;99.90;;;;;;5115768;28;20458;-77
2021/10/04 01:57:23;;;;;;;319.63;76.03;;;12.30;99.90;;;;;;5117004;28;20550;-77
2021/10/04 01:59:52;;;;;;;268.30;66.87;;;12.30;99.90;;;;;;5116984;28;20454;-76
2021/10/04 02:02:20;;;;;;;329.33;82.87;;;12.30;99.90;;;;;;5116056;28;20443;-76
2021/10/04 02:04:48;;;;;;;273.30;59.37;;;12.30;99.90;;;;;;5116571;28;20471;-76
2021/10/04 02:07:16;;;;;;;323.43;63.43;;;12.30;99.90;;;;;;5116082;28;20463;-77
2021/10/04 02:09:47;;;;;;;301.10;71.67;;;12.30;99.90;;;;;;5116938;28;20522;-76
2021/10/04 02:12:17;;;;;;;229.93;53.03;;;12.30;99.90;;;;;;5115480;28;20538;-76
2021/10/04 02:14:45;;;;;;;247.43;64.93;;;12.30;99.90;;;;;;5115307;28;20475;-76
2021/10/04 02:17:13;;;;;;;185.93;44.50;;;12.30;99.90;;;;;;5115245;28;20562;-76
2021/10/04 02:19:41;;;;;;;201.00;51.47;;;12.30;99.90;;;;;;5115554;28;20443;-76
2021/10/04 02:22:09;;;;;;;312.83;66.43;;;12.30;99.90;;;;;;5115284;28;20941;-76
2021/10/04 02:24:37;;;;;;;300.70;67.20;;;12.30;99.90;;;;;;5115145;28;20558;-77
2021/10/04 02:27:05;;;;;;;10.50;8.57;;;12.30;99.90;;;;;;5116010;28;20431;-76
2021/10/04 02:29:35;;;;;;;993.93;435.30;;;12.30;99.90;;;;;;5115212;28;20284;-77
2021/10/04 02:32:04;;;;;;;245.63;82.87;;;12.30;99.90;;;;;;5114864;28;20443;-77
2021/10/04 02:34:32;;;;;;;378.40;103.57;;;12.30;99.90;;;;;;5115261;28;20444;-76
2021/10/04 02:37:00;;;;;;;275.07;70.37;;;12.30;99.90;;;;;;5116272;28;20455;-76
2021/10/04 02:39:28;;;;;;;279.33;66.73;;;12.30;99.90;;;;;;5114897;28;20478;-76
2021/10/04 02:41:57;;;;;;;329.80;85.47;;;12.30;99.90;;;;;;5116130;28;20447;-76
2021/10/04 02:44:25;;;;;;;282.93;66.37;;;12.30;99.90;;;;;;5115678;28;20477;-76
2021/10/04 02:46:55;;;;;;;103.93;36.60;;;12.30;99.90;;;;;;5116285;28;20537;-77
2021/10/04 02:49:23;;;;;;;311.10;71.00;;;12.30;99.90;;;;;;5114723;28;20447;-77
2021/10/04 02:51:51;;;;;;;350.47;90.97;;;12.30;99.90;;;;;;5115061;28;20526;-77
2021/10/04 02:54:19;;;;;;;343.87;81.57;;;12.30;99.90;;;;;;5115885;27;20948;-76
2021/10/04 02:56:47;;;;;;;354.97;70.90;;;12.20;99.90;;;;;;5114458;28;20992;-76
2021/10/04 02:59:15;;;;;;;203.17;47.43;;;12.20;99.90;;;;;;5114521;28;20443;-77
2021/10/04 03:01:43;;;;;;;338.33;56.73;;;12.20;99.90;;;;;;5114554;28;20974;-77
2021/10/04 03:04:13;;;;;;;10.82;8.40;;;12.20;99.90;;;;;;5114586;27;20439;-77
2021/10/04 03:06:41;;;;;;;854.77;354.47;;;12.30;99.90;;;;;;5114415;28;20300;-76
2021/10/04 03:09:09;;;;;;;9.93;8.68;;;12.30;99.90;;;;;;5113602;28;20533;-77
2021/10/04 03:11:37;;;;;;;567.77;276.87;;;12.40;99.90;;;;;;5114680;28;20193;-76
2021/10/04 03:14:06;;;;;;;1194.47;339.03;;;12.40;99.90;;;;;;5115813;28;20792;-76
2021/10/04 03:16:36;;;;;;;363.13;90.57;;;12.30;99.90;;;;;;5114224;28;20475;-76
2021/10/04 03:19:04;;;;;;;313.07;73.43;;;12.30;99.90;;;;;;5114120;28;20454;-76
2021/10/04 03:21:34;;;;;;;320.33;72.10;;;12.20;99.90;;;;;;5114014;28;20856;-76
2021/10/04 03:24:02;;;;;;;301.80;53.47;;;12.20;99.90;;;;;;5113955;28;20554;-76
2021/10/04 03:26:30;;;;;;;287.67;54.47;;;12.20;99.90;;;;;;5114304;28;20972;-76
2021/10/04 03:28:58;;;;;;;405.20;66.17;;;12.20;99.90;;;;;;5113998;28;20451;-77
2021/10/04 03:31:26;;;;;;;247.57;61.97;;;12.20;99.90;;;;;;5113870;28;20819;-76
2021/10/04 03:33:55;;;;;;;284.33;55.23;;;12.20;99.90;;;;;;5113924;28;20983;-77
2021/10/04 03:36:23;;;;;;;137.03;39.67;;;12.20;99.90;;;;;;5113769;28;20550;-76
2021/10/04 03:38:53;;;;;;;232.37;53.00;;;12.20;99.90;;;;;;5114778;28;20459;-76
2021/10/04 03:41:21;;;;;;;265.10;61.20;;;12.10;99.90;;;;;;5113689;28;20443;-76
2021/10/04 03:43:50;;;;;;;272.30;60.47;;;12.10;99.90;;;;;;5114188;28;20450;-76
2021/10/04 03:46:18;;;;;;;9.77;8.10;;;12.10;99.90;;;;;;5113684;28;20443;-76
2021/10/04 03:48:46;;;;;;;693.67;297.27;;;12.20;99.90;;;;;;5114911;28;20189;-76
2021/10/04 03:51:14;;;;;;;373.83;69.97;;;12.20;99.90;;;;;;5113841;28;20546;-75
2021/10/04 03:53:43;;;;;;;366.80;68.00;;;12.20;99.90;;;;;;5113469;28;20795;-78
2021/10/04 03:56:13;;;;;;;223.13;67.67;;;12.10;99.90;;;;;;5112466;28;20987;-77
2021/10/04 03:58:41;;;;;;;289.17;60.23;;;12.10;99.90;;;;;;5113380;28;20542;-77
2021/10/04 04:01:11;;;;;;;286.17;41.33;;;12.10;99.90;;;;;;5113406;28;20538;-77
2021/10/04 04:03:40;;;;;;;230.40;45.80;;;12.10;99.90;;;;;;5114659;28;20789;-77
2021/10/04 04:06:09;;;;;;;212.10;35.53;;;12.00;99.90;;;;;;5113548;28;20479;-77
2021/10/04 04:08:37;;;;;;;310.17;50.10;;;12.10;99.90;;;;;;5114485;28;20445;-76
2021/10/04 04:11:05;;;;;;;231.03;49.70;;;12.10;99.90;;;;;;5115037;28;20435;-77
2021/10/04 04:13:34;;;;;;;341.23;53.00;;;12.00;99.90;;;;;;5114417;28;20432;-77
2021/10/04 04:16:04;;;;;;;139.40;46.27;;;12.00;99.90;;;;;;5113230;28;20463;-77
2021/10/04 04:18:33;;;;;;;312.27;60.77;;;12.00;99.90;;;;;;5113093;28;20940;-77
2021/10/04 04:21:01;;;;;;;260.03;51.77;;;12.00;99.90;;;;;;5113093;28;20452;-77
2021/10/04 04:23:29;;;;;;;315.80;51.83;;;12.00;99.90;;;;;;5114550;28;20374;-77
2021/10/04 04:25:57;;;;;;;213.40;64.13;;;12.00;99.90;;;;;;5114093;28;20471;-77
2021/10/04 04:28:26;;;;;;;261.10;40.63;;;12.00;99.90;;;;;;5114443;28;20435;-77
2021/10/04 04:30:55;;;;;;;183.23;38.10;;;11.90;99.90;;;;;;5113710;28;20466;-77
2021/10/04 04:33:23;;;;;;;199.87;46.13;;;11.90;99.90;;;;;;5112960;28;20819;-76
2021/10/04 04:35:51;;;;;;;241.67;42.67;;;11.90;99.90;;;;;;5114328;28;20463;-77
2021/10/04 04:38:20;;;;;;;213.17;47.30;;;11.90;99.90;;;;;;5114219;28;20507;-77
2021/10/04 04:40:48;;;;;;;410.90;63.07;;;11.90;99.90;;;;;;5114079;28;20440;-76
2021/10/04 04:43:16;;;;;;;294.87;56.40;;;11.90;99.90;;;;;;5112645;28;20524;-77
2021/10/04 04:45:44;;;;;;;189.80;37.60;;;11.90;99.90;;;;;;5113868;28;21043;-77
2021/10/04 04:48:14;;;;;;;156.33;37.07;;;11.90;99.90;;;;;;5112688;28;20504;-77
2021/10/04 04:50:42;;;;;;;186.80;40.03;;;11.90;99.90;;;;;;5114174;28;20524;-77
2021/10/04 04:53:10;;;;;;;312.07;53.73;;;11.80;99.90;;;;;;5112571;28;20896;-77
2021/10/04 04:55:38;;;;;;;185.70;30.07;;;11.80;99.90;;;;;;5112428;28;20458;-76
2021/10/04 04:58:07;;;;;;;176.33;39.17;;;11.80;99.90;;;;;;5112787;28;20463;-77
2021/10/04 05:00:36;;;;;;;164.00;34.70;;;11.80;99.90;;;;;;5112634;28;20451;-77
2021/10/04 05:03:06;;;;;;;208.20;44.60;;;11.80;99.90;;;;;;5112606;28;20982;-76
2021/10/04 05:05:36;;;;;;;156.10;38.20;;;11.80;99.90;;;;;;5112442;28;20485;-77
2021/10/04 05:08:04;;;;;;;108.57;28.83;;;11.80;99.90;;;;;;5114984;28;20426;-77
2021/10/04 05:10:33;;;;;;;334.20;80.63;;;11.80;99.90;;;;;;5116833;28;20438;-76
2021/10/04 05:13:01;;;;;;;323.90;62.57;;;11.80;99.90;;;;;;5116658;28;20485;-77
2021/10/04 05:15:30;;;;;;;7.63;4.72;;;11.80;99.90;;;;;;5115462;28;20470;-77
2021/10/04 05:17:58;;;;;;;783.20;365.20;;;11.90;99.90;;;;;;5116513;28;20312;-77
2021/10/04 05:20:27;;;;;;;384.70;104.47;;;11.90;99.90;;;;;;5118261;28;20431;-77
2021/10/04 05:22:58;;;;;;;249.17;56.43;;;11.90;99.90;;;;;;5116611;28;20869;-76
2021/10/04 05:25:26;;;;;;;261.47;53.57;;;11.80;99.90;;;;;;5116335;28;20471;-76
2021/10/04 05:27:57;;;;;;;248.37;58.07;;;11.80;99.90;;;;;;5116340;28;20508;-76
2021/10/04 05:30:26;;;;;;;196.57;40.23;;;11.80;99.90;;;;;;5116437;28;20451;-77
2021/10/04 05:32:54;;;;;;;253.77;54.00;;;11.80;99.90;;;;;;5116405;28;20950;-77
2021/10/04 05:35:22;;;;;;;222.93;49.67;;;11.80;99.90;;;;;;5117197;28;20487;-77
2021/10/04 05:37:51;;;;;;;215.83;37.90;;;11.70;99.90;;;;;;5116030;28;20467;-77
2021/10/04 05:40:21;;;;;;;419.27;64.97;;;11.70;99.90;;;;;;5117384;28;20438;-77
2021/10/04 05:42:49;;;;;;;204.60;43.03;;;11.70;99.90;;;;;;5116160;28;20447;-77
2021/10/04 05:45:17;;;;;;;130.97;36.83;;;11.70;99.90;;;;;;5117254;28;20530;-77
2021/10/04 05:47:45;;;;;;;308.83;53.23;;;11.70;99.90;;;;;;5117625;28;20486;-77
2021/10/04 05:50:14;;;;;;;177.33;36.93;;;11.70;99.90;;;;;;5117226;28;20447;-77
2021/10/04 05:52:43;;;;;;;85.07;19.10;;;11.70;99.90;;;;;;5115513;28;20537;-77
2021/10/04 05:55:14;;;;;;;359.43;78.13;;;11.70;99.90;;;;;;5115804;28;20234;-77
2021/10/04 05:57:48;;;;;;;224.73;53.17;;;11.70;99.90;;;;;;5116187;28;20964;-77
2021/10/04 06:00:17;;;;;;;196.17;48.67;;;11.70;99.90;;;;;;5115715;28;20432;-77
2021/10/04 06:02:45;;;;;;;156.80;46.93;;;11.70;99.90;;;;;;5116227;28;20475;-77
2021/10/04 06:05:15;;;;;;;184.63;38.40;;;11.70;99.90;;;;;;5116182;28;20498;-77
2021/10/04 06:07:43;;;;;;;262.40;50.10;;;11.70;99.90;;;;;;5115873;28;20484;-76
2021/10/04 06:10:15;;;;;;;328.73;62.43;;;11.70;99.90;;;;;;5117464;28;20433;-77
2021/10/04 06:12:44;;;;;;;297.80;55.40;;;11.70;99.90;;;;;;5116089;28;20436;-77
2021/10/04 06:15:14;;;;;;;271.13;56.30;;;11.70;99.90;;;;;;5117342;28;21018;-76
2021/10/04 06:17:43;;;;;;;221.40;43.17;;;11.70;99.90;;;;;;5115904;28;20524;-74
2021/10/04 06:20:13;;;;;;;291.23;53.43;;;11.70;99.90;;;;;;5114662;28;20530;-77
2021/10/04 06:22:42;;;;;;;220.43;46.93;;;11.80;99.90;;;;;;5116795;28;20490;-77
2021/10/04 06:25:13;;;;;;;238.33;45.37;;;11.70;99.90;;;;;;5115896;28;20462;-77
2021/10/04 06:27:41;;;;;;;127.57;26.47;;;11.80;99.90;;;;;;5115849;28;20560;-77
2021/10/04 06:30:11;;;;;;;201.43;45.60;;;11.80;99.90;;;;;;5115862;28;20443;-76
2021/10/04 06:32:40;;;;;;;211.23;45.77;;;11.90;99.90;;;;;;5115696;28;20504;-76
2021/10/04 06:35:09;;;;;;;278.23;49.73;;;11.90;99.90;;;;;;5115507;28;20447;-76
2021/10/04 06:37:37;;;;;;;130.20;32.05;;;11.90;99.90;;;;;;5115248;28;20523;-76
2021/10/04 06:40:06;;;;;;;346.13;66.40;;;11.90;99.90;;;;;;5116844;28;20188;-76
2021/10/04 06:42:35;;;;;;;268.97;53.10;;;12.00;99.90;;;;;;5115196;28;20735;-77
2021/10/04 06:45:04;;;;;;;6.25;4.25;;;12.00;99.90;;;;;;5114298;28;20435;-76
2021/10/04 06:47:32;;;;;;;477.90;257.10;;;12.10;99.90;;;;;;5115067;28;20218;-76
2021/10/04 06:50:01;;;;;;;637.43;181.87;;;12.10;99.90;;;;;;5115175;28;20809;-76
2021/10/04 06:52:30;;;;;;;374.70;83.30;;;12.10;99.90;;;;;;5116528;28;20915;-76
2021/10/04 06:54:59;;;;;;;275.00;64.73;;;12.10;99.90;;;;;;5115197;28;20481;-76
2021/10/04 06:57:27;;;;;;;316.03;54.43;;;12.20;99.90;;;;;;5115068;28;20467;-76
2021/10/04 06:59:55;;;;;;;314.10;70.30;;;12.20;99.90;;;;;;5115204;28;20541;-76
2021/10/04 07:02:23;;;;;;;265.50;48.90;;;12.20;99.90;;;;;;5116449;28;20481;-76
2021/10/04 07:04:52;;;;;;;213.50;55.80;;;12.20;99.90;;;;;;5116402;28;20954;-76
2021/10/04 07:07:21;;;;;;;317.57;49.60;;;12.20;99.90;;;;;;5114603;28;20843;-76
2021/10/04 07:09:49;;;;;;;201.53;54.07;;;12.30;99.90;;;;;;5115131;28;20442;-76
2021/10/04 07:12:17;;;;;;;323.60;62.87;;;12.30;99.90;;;;;;5114828;28;20490;-76
2021/10/04 07:14:46;;;;;;;330.43;75.43;;;12.30;99.90;;;;;;5116354;28;20443;-77
2021/10/04 07:17:14;;;;;;;318.83;67.27;;;12.30;99.90;;;;;;5114563;28;20491;-77
2021/10/04 07:19:42;;;;;;;303.03;63.70;;;12.40;99.90;;;;;;5115827;28;20933;-76
2021/10/04 07:22:11;;;;;;;524.73;111.33;;;12.40;99.90;;;;;;5115705;28;20474;-76
2021/10/04 07:24:40;;;;;;;333.40;75.07;;;12.40;99.90;;;;;;5114184;28;20450;-76
2021/10/04 07:27:13;;;;;;;270.00;61.63;;;12.40;99.90;;;;;;5114538;28;20498;-76
2021/10/04 07:29:41;;;;;;;4.88;3.20;;;12.40;99.90;;;;;;5114580;28;20488;-76
2021/10/04 07:32:10;;;;;;;1523.63;604.77;;;12.60;99.90;;;;;;5113855;28;20285;-76
2021/10/04 07:34:38;;;;;;;1999.90;728.57;;;12.60;99.90;;;;;;5113849;28;20475;-76
2021/10/04 07:37:06;;;;;;;1225.43;324.90;;;12.60;99.90;;;;;;5113860;28;20504;-77
2021/10/04 07:39:35;;;;;;;380.60;92.17;;;12.60;99.90;;;;;;5113921;28;20459;-76
2021/10/04 07:42:05;;;;;;;495.70;119.90;;;12.60;99.90;;;;;;5113692;28;20467;-77
2021/10/04 07:44:33;;;;;;;383.67;90.40;;;12.60;99.90;;;;;;5113829;28;20897;-76
2021/10/04 07:47:03;;;;;;;406.03;78.33;;;12.60;99.90;;;;;;5113677;28;21032;-76
2021/10/04 07:49:32;;;;;;;311.70;59.53;;;12.60;99.90;;;;;;5113731;28;20482;-77
2021/10/04 07:52:05;;;;;;;450.73;84.70;;;12.60;99.90;;;;;;5114035;28;20492;-76
2021/10/04 07:54:33;;;;;;;104.43;30.03;;;12.60;99.90;;;;;;5113509;28;20439;-76
2021/10/04 07:57:01;;;;;;;358.67;91.40;;;12.70;99.90;;;;;;5113355;28;20456;-77
2021/10/04 07:59:31;;;;;;;392.27;86.07;;;12.70;99.90;;;;;;5113418;28;20479;-76
2021/10/04 08:01:59;;;;;;;644.03;112.57;;;12.70;99.90;;;;;;5113384;28;20443;-76
2021/10/04 08:04:27;;;;;;;653.80;117.43;;;12.70;99.90;;;;;;5114710;28;20447;-76
2021/10/04 08:06:56;;;;;;;231.55;49.25;;;12.70;99.90;;;;;;5114501;28;20438;-76
2021/10/04 08:09:24;;;;;;;1940.23;633.33;;;12.80;99.90;;;;;;5113541;28;20643;-76
2021/10/04 08:11:55;;;;;;;860.83;214.83;;;12.80;99.90;;;;;;5114959;28;20450;-76
2021/10/04 08:14:23;;;;;;;5.35;2.70;;;12.90;99.90;;;;;;5114010;28;20441;-76
2021/10/04 08:16:53;;;;;;;1729.67;644.17;;;12.90;99.90;;;;;;5113205;28;20209;-78
2021/10/04 08:19:21;;;;;;;1999.90;903.03;;;13.00;99.90;;;;;;5114875;28;20442;-77
2021/10/04 08:21:50;;;;;;;1948.53;677.70;;;13.00;99.90;;;;;;5113441;28;20443;-76
2021/10/04 08:24:18;;;;;;;1934.67;576.60;;;13.00;99.90;;;;;;5114876;28;20443;-77
2021/10/04 08:26:46;;;;;;;1904.87;564.20;;;13.00;99.90;;;;;;5113015;28;20468;-76
2021/10/04 08:29:15;;;;;;;903.47;236.10;;;13.00;99.90;;;;;;5113462;28;20439;-76
2021/10/04 08:31:43;;;;;;;1493.60;414.87;;;13.00;99.90;;;;;;5113198;28;20801;-76
2021/10/04 08:34:13;;;;;;;1233.17;266.20;;;13.00;99.90;;;;;;5114384;28;20445;-76
2021/10/04 08:36:41;;;;;;;1983.30;471.50;;;13.10;99.90;;;;;;5113116;28;20486;-76
2021/10/04 08:39:09;;;;;;;1267.63;285.93;;;13.10;99.90;;;;;;5113115;28;20538;-76
2021/10/04 08:41:38;;;;;;;1843.43;439.17;;;13.20;99.90;;;;;;5113483;28;20471;-76
2021/10/04 08:44:08;;;;;;;1999.90;568.33;;;13.20;99.90;;;;;;5113583;28;20470;-76
2021/10/04 08:46:38;;;;;;;1999.90;505.73;;;13.20;99.90;;;;;;5114330;28;20528;-76
2021/10/04 08:49:13;;;;;;;1999.90;647.30;;;13.30;99.90;;;;;;5114832;28;20954;-76
2021/10/04 08:51:42;;;;;;;15.52;14.05;;;13.30;99.90;;;;;;5112491;28;20443;-76
2021/10/04 08:54:11;;;;;;;1999.90;992.90;;;13.30;99.90;;;;;;5114204;28;20190;-77
2021/10/04 08:56:40;;;;;;;365.30;221.05;;;13.40;99.90;;;;;;5114232;28;20516;-77
2021/10/04 08:59:08;;;;;;;1999.90;991.93;;;13.50;99.90;;;;;;5112971;28;20197;-76
2021/10/04 09:01:36;;;;;;;1999.90;823.10;;;13.40;99.90;;;;;;5113162;28;20442;-76
2021/10/04 09:04:05;;;;;;;1999.90;763.50;;;13.50;99.90;;;;;;5114357;28;20435;-76
2021/10/04 09:06:37;;;;;;;1999.90;733.60;;;13.50;99.90;;;;;;5112551;28;20463;-76
2021/10/04 09:09:10;;;;;;;1999.90;621.47;;;13.50;99.90;;;;;;5112816;28;20466;-76
2021/10/04 09:11:39;;;;;;;1999.90;556.90;;;13.60;99.90;;;;;;5113117;28;20431;-76
2021/10/04 09:14:11;;;;;;;1999.90;468.13;;;13.60;99.90;;;;;;5112656;28;20457;-77
2021/10/04 09:16:57;;;;;;;1999.90;531.47;;;13.60;99.90;;;;;;5112308;28;20467;-77
2021/10/04 09:19:28;;;;;;;1999.90;543.90;;;13.70;99.90;;;;;;5112293;28;20461;-77
2021/10/04 09:22:19;;;;;;;1999.90;498.30;;;13.70;99.90;;;;;;5113859;28;20427;-76
2021/10/04 09:25:02;;;;;;;1999.90;479.97;;;13.80;99.90;;;;;;5107161;28;20470;-77
2021/10/04 09:27:33;;;;;;;1757.83;380.47;;;13.80;99.90;;;;;;5112331;28;20510;-77
2021/10/04 09:30:04;;;;;;;11.98;11.00;;;13.90;99.90;;;;;;5112378;28;20928;-78
2021/10/04 09:32:36;;;;;;;1999.90;999.90;;;14.00;99.90;;;;;;5112315;28;20196;-77
2021/10/04 09:35:23;;;;;;;10.27;9.38;;;14.10;99.90;;;;;;5111311;28;20457;-76
2021/10/04 09:37:55;;;;;;;1999.90;999.90;;;14.20;99.90;;;;;;5113583;28;20220;-76
2021/10/04 09:40:39;;;;;;;1999.90;674.07;;;14.20;99.90;;;;;;5112145;28;20513;-76
2021/10/04 09:43:10;;;;;;;1999.90;846.27;;;14.20;99.90;;;;;;5113758;28;20759;-77
2021/10/04 09:45:38;;;;;;;1999.90;889.37;;;14.20;99.90;;;;;;5112143;28;20489;-76
2021/10/04 09:48:11;;;;;;;1999.90;382.57;;;14.30;99.90;;;;;;5112060;28;20475;-76
2021/10/04 09:50:41;;;;;;;1842.83;325.93;;;14.30;99.90;;;;;;5114059;28;20450;-77
2021/10/04 09:53:15;;;;;;;1796.90;243.30;;;14.30;99.90;;;;;;5112025;28;20490;-76
2021/10/04 09:55:44;;;;;;;1142.30;152.60;;;14.40;99.90;;;;;;5115816;28;20529;-77
2021/10/04 09:58:15;;;;;;;1291.47;408.73;;;14.40;99.90;;;;;;5117072;28;20526;-76
2021/10/04 10:00:51;;;;;;;1999.90;999.90;;;14.50;99.90;;;;;;5115936;28;20533;-77
2021/10/04 10:03:22;;;;;;;1999.90;999.90;;;14.50;99.90;;;;;;5115773;28;20446;-78
2021/10/04 10:05:53;;;;;;;1271.75;558.95;;;14.50;99.90;;;;;;5116633;28;20422;-77
2021/10/04 10:08:25;;;;;;;1999.90;611.43;;;14.60;99.90;;;;;;5116809;28;20198;-76
2021/10/04 10:10:57;;;;;;;1999.90;999.90;;;14.60;99.90;;;;;;5115314;28;20872;-77
2021/10/04 10:13:26;;;;;;;1999.90;373.33;;;14.70;99.90;;;;;;5117216;28;20470;-77
2021/10/04 10:16:04;;;;;;;1999.90;999.90;;;14.70;99.90;;;;;;5115494;28;20434;-77
2021/10/04 10:18:39;;;;;;;440.97;70.10;;;14.80;99.90;;;;;;5117038;28;20443;-77
2021/10/04 10:21:18;;;;;;;1999.90;999.90;;;14.80;99.90;;;;;;5115292;28;20428;-77
2021/10/04 10:23:51;;;;;;;1784.33;721.80;;;14.90;99.90;;;;;;5116642;28;20406;-77
2021/10/04 10:26:31;;;;;;;1868.33;730.00;;;15.00;99.90;;;;;;5115245;28;20547;-77
2021/10/04 10:29:24;;;;;;;1999.90;999.90;;;15.10;99.90;;;;;;5116408;28;20476;-76
2021/10/04 10:32:22;;;;;;;1999.90;999.90;;;15.10;99.90;;;;;;5115277;28;20794;-77
2021/10/04 10:34:59;;;;;;;1999.90;999.90;;;15.20;99.90;;;;;;5115138;28;20439;-77
2021/10/04 10:37:47;;;;;;;1999.90;999.90;;;15.30;99.90;;;;;;5116373;28;20895;-77
2021/10/04 10:40:18;;;;;;;1999.90;999.90;;;15.30;99.90;;;;;;5115029;28;20467;-77
2021/10/04 10:43:02;;;;;;;1999.90;999.90;;;15.40;99.90;;;;;;5115211;28;20808;-76
2021/10/04 10:45:43;;;;;;;1655.43;706.80;;;15.40;99.90;;;;;;5113617;28;20208;-77
2021/10/04 10:48:13;;;;;;;1999.90;999.90;;;15.50;99.90;;;;;;5114184;28;20425;-76
2021/10/04 10:50:43;;;;;;;1999.90;999.90;;;15.50;99.90;;;;;;5114881;28;20295;-77
2021/10/04 10:53:16;;;;;;;1586.07;693.07;;;15.50;99.90;;;;;;5114926;28;20448;-77
2021/10/04 10:55:47;;;;;;;1999.90;999.90;;;15.60;99.90;;;;;;5114695;28;20450;-77
2021/10/04 10:58:16;;;;;;;1523.10;696.20;;;15.50;99.90;;;;;;5114699;28;20415;-77
2021/10/04 11:00:46;;;;;;;1999.90;999.90;;;15.60;99.90;;;;;;5115907;28;20434;-76
2021/10/04 11:03:18;;;;;;;1999.90;999.90;;;15.60;99.90;;;;;;5115978;28;20402;-77
2021/10/04 11:06:00;;;;;;;1999.90;999.90;;;15.60;99.90;;;;;;5115515;28;20928;-77
2021/10/04 11:08:58;;;;;;;1999.90;999.90;;;15.60;99.90;;;;;;5114544;28;20434;-77
2021/10/04 11:11:30;;;;;;;1999.90;999.90;;;15.60;99.90;;;;;;5115770;28;20420;-77
2021/10/04 11:14:21;;;;;;;1999.90;999.90;;;15.70;99.90;;;;;;5115941;28;20417;-77
2021/10/04 11:17:01;;;;;;;1999.90;999.90;;;15.70;99.90;;;;;;5115892;28;20506;-77
2021/10/04 11:19:38;;;;;;;1999.90;999.90;;;15.70;99.90;;;;;;5113224;28;20543;-77
2021/10/04 11:22:17;;;;;;;1999.90;999.90;;;15.80;99.90;;;;;;5114382;28;20194;-76
2021/10/04 11:24:46;;;;;;;1999.90;999.90;;;15.80;99.90;;;;;;5114609;28;20872;-76
2021/10/04 11:27:17;;;;;;;1980.50;748.10;;;15.90;99.90;;;;;;5114077;28;20304;-77
2021/10/04 11:29:45;;;;;;;1999.90;999.90;;;15.90;99.90;;;;;;5114070;28;20483;-76
2021/10/04 11:32:16;;;;;;;1999.90;999.90;;;16.00;99.90;;;;;;5115195;28;20444;-77
2021/10/04 11:34:44;;;;;;;1999.90;999.90;;;16.00;99.90;;;;;;5114233;28;20965;-77
2021/10/04 11:37:12;;;;;;;1999.90;999.90;;;16.00;99.90;;;;;;5114226;28;20444;-77
2021/10/04 11:39:43;;;;;;;1999.90;999.90;;;16.00;99.90;;;;;;5114051;28;20519;-78
2021/10/04 11:42:12;;;;;;;1999.90;999.90;;;16.10;99.90;;;;;;5115617;28;20431;-77
2021/10/04 11:44:44;;;;;;;1999.90;999.90;;;16.20;99.90;;;;;;5115749;28;20453;-77
2021/10/04 11:47:14;;;;;;;1999.90;999.90;;;16.20;99.90;;;;;;5115987;28;20450;-77
2021/10/04 11:49:44;;;;;;;1999.90;999.90;;;16.20;99.90;;;;;;5114090;28;20467;-78
2021/10/04 11:52:15;;;;;;;1999.90;999.90;;;16.20;99.90;;;;;;5113614;28;21047;-77
2021/10/04 11:54:45;;;;;;;1999.90;999.90;;;16.30;99.90;;;;;;5115116;28;20427;-77
2021/10/04 11:57:15;;;;;;;1999.90;999.90;;;16.30;99.90;;;;;;5114958;28;20429;-77
2021/10/04 11:59:55;;;;;;;1999.90;751.55;;;16.40;99.90;;;;;;5113053;28;20938;-76
2021/10/04 12:02:26;;;;;;;1999.90;999.90;;;16.40;99.90;;;;;;5113357;28;20190;-77
2021/10/04 12:05:13;;;;;;;1999.90;999.90;;;16.50;99.90;;;;;;5114867;28;20496;-76
2021/10/04 12:07:58;;;;;;;1999.90;999.90;;;16.60;99.90;;;;;;5113148;28;20526;-77
2021/10/04 12:10:38;;;;;;;1999.90;999.90;;;16.60;99.90;;;;;;5113498;28;20562;-77
2021/10/04 12:13:08;;;;;;;1999.90;999.90;;;16.70;99.90;;;;;;5114803;28;20452;-77
2021/10/04 12:15:38;;;;;;;1999.90;999.90;;;16.70;99.90;;;;;;5114419;28;20875;-77
2021/10/04 12:18:06;;;;;;;1999.90;999.90;;;16.70;99.90;;;;;;5112205;28;20414;-77
2021/10/04 12:20:34;;;;;;;1999.90;999.90;;;16.80;99.90;;;;;;5114503;28;20425;-77
2021/10/04 12:23:18;;;;;;;1999.90;999.90;;;16.80;99.90;;;;;;5114321;28;20903;-78
2021/10/04 12:25:48;;;;;;;1999.90;999.90;;;16.90;99.90;;;;;;5114518;28;20515;-76